Caribbean Galaxy — 3EZV4 — position and weather

sailwx.info

Track history (hours):
 
Tides and Currents Weather Stations Pressure Air Temp Water Temp Dewpoint Dewpoint Depression Visibility Wind Speed Wind Dir Waves Ship Positions

Caribbean Galaxy

Last reported at 2016-Jun-06 11:31 UTC. Time now 2016-Jun-29 12:57 UTC.
Position N 36°45' E 142°32'.
Warning: this ship's position is 23 days out of date.

Length 246 m; draft 8.4 m.

Type: Tanker. MMSI: 357449000.

Date/timePositionNaut miles runAvg speedWind from/ knotsBaromVisibWave heightAir tempDewpointWater temp
2016-Jun-06 11:31N 36°45' E 142°32'10011.2
2016-Jun-06 02:33N 35°58' E 140°43'2 0.1
2016-Jun-05 14:14N 35°56' E 140°43'0 0.0
2016-Jun-05 12:32N 35°56' E 140°43'0 0.0
2016-Jun-05 11:29N 35°56' E 140°43'0 0.0
2016-Jun-05 01:33N 35°56' E 140°42'6 5.8
2016-Jun-05 00:33N 36°02' E 140°45'7 6.9
2016-Jun-04 23:33N 36°08' E 140°47'1 0.7
2016-Jun-04 22:33N 36°09' E 140°47'0 0.5
2016-Jun-04 21:33N 36°09' E 140°47'1 0.8
2016-Jun-04 20:33N 36°08' E 140°48'1 0.6
2016-Jun-04 19:24N 36°08' E 140°49'1 0.5
2016-Jun-04 18:21N 36°07' E 140°49'0 0.5
2016-Jun-04 17:33N 36°07' E 140°49'1 0.4
2016-Jun-04 16:11N 36°06' E 140°49'0 0.4
2016-Jun-04 15:20N 36°06' E 140°49'0 0.4
2016-Jun-04 14:23N 36°06' E 140°49'0 0.5
2016-Jun-04 13:28N 36°05' E 140°49'0 0.5
2016-Jun-04 12:33N 36°05' E 140°48'1 0.6
2016-Jun-04 10:32N 36°04' E 140°48'  
Track history (hours):
 
Tides and Currents Weather Stations Pressure Air Temp Water Temp Dewpoint Dewpoint Depression Visibility Wind Speed Wind Dir Waves Ship Positions

Caribbean Galaxy

Last reported at 2016-Jun-06 11:31 UTC. Time now 2016-Jun-29 12:57 UTC.
Position N 36°45' E 142°32'.
Warning: this ship's position is 23 days out of date.

Length 246 m; draft 8.4 m.

Type: Tanker. MMSI: 357449000.

Date/timePositionNaut miles runAvg speedWind from/ knotsBaromVisibWave heightAir tempDewpointWater temp
2016-Jun-06 11:31N 36°45' E 142°32'10011.2
2016-Jun-06 02:33N 35°58' E 140°43'2 0.1
2016-Jun-05 14:14N 35°56' E 140°43'0 0.0
2016-Jun-05 12:32N 35°56' E 140°43'0 0.0
2016-Jun-05 11:29N 35°56' E 140°43'0 0.0
2016-Jun-05 01:33N 35°56' E 140°42'6 5.8
2016-Jun-05 00:33N 36°02' E 140°45'7 6.9
2016-Jun-04 23:33N 36°08' E 140°47'1 0.7
2016-Jun-04 22:33N 36°09' E 140°47'0 0.5
2016-Jun-04 21:33N 36°09' E 140°47'1 0.8
2016-Jun-04 20:33N 36°08' E 140°48'1 0.6
2016-Jun-04 19:24N 36°08' E 140°49'1 0.5
2016-Jun-04 18:21N 36°07' E 140°49'0 0.5
2016-Jun-04 17:33N 36°07' E 140°49'1 0.4
2016-Jun-04 16:11N 36°06' E 140°49'0 0.4
2016-Jun-04 15:20N 36°06' E 140°49'0 0.4
2016-Jun-04 14:23N 36°06' E 140°49'0 0.5
2016-Jun-04 13:28N 36°05' E 140°49'0 0.5
2016-Jun-04 12:33N 36°05' E 140°48'1 0.6
2016-Jun-04 10:32N 36°04' E 140°48'  

Dump ship's entire track history